Time;durP1;ratioP1;P1;durP2;ratioP2;P2;SDS_P1;SDS_P2;PMS_P1;PMS_P2;Temp;Humidity;BMP_temperature;BMP_pressure;BME280_temperature;BME280_humidity;BME280_pressure;Samples;Min_cycle;Max_cycle;Signal;HPM_P1;HPM_P2
2022/11/06 00:00:08;;;;;;;71.30;47.90;;;;;;;5.11;72.56;100826.19;108675;1277;21958;-83
2022/11/06 00:02:58;;;;;;;72.40;46.50;;;;;;;5.06;72.40;100832.26;108640;1277;21925;-83
2022/11/06 00:08:42;;;;;;;66.40;45.10;;;;;;;4.97;72.41;100831.64;108628;1277;21948;-82
2022/11/06 00:12:00;;;;;;;;;;;;;;;;;;;;;
2022/11/06 00:14:40;;;;;;;72.60;49.00;;;;;;;4.94;72.75;100834.59;108115;1286;21942;-82
2022/11/06 00:17:20;;;;;;;69.50;48.80;;;;;;;4.91;72.64;100835.13;108059;1286;21944;-82
2022/11/06 00:20:14;;;;;;;79.30;52.30;;;;;;;4.89;72.59;100838.77;107897;1286;22467;-82
2022/11/06 00:23:02;;;;;;;78.10;54.60;;;;;;;4.84;72.52;100840.70;107927;1286;23064;-82
2022/11/06 00:25:46;;;;;;;76.10;54.30;;;;;;;4.78;72.37;100843.14;107977;1286;22095;-81
2022/11/06 00:28:25;;;;;;;73.90;52.50;;;;;;;4.74;72.41;100844.90;107973;1286;21951;-83
2022/11/06 00:31:21;;;;;;;72.40;52.80;;;;;;;4.69;72.56;100841.64;108059;1286;21948;-82
2022/11/06 00:34:06;;;;;;;75.40;53.90;;;;;;;4.67;72.71;100843.73;108247;1283;21966;-81
2022/11/06 00:36:56;;;;;;;75.80;55.00;;;;;;;4.67;72.88;100841.66;108362;1279;21940;-81
2022/11/06 00:39:39;;;;;;;73.60;52.60;;;;;;;4.67;72.96;100847.86;107577;1280;1045815;-82
2022/11/06 00:42:28;;;;;;;73.90;51.20;;;;;;;4.66;72.90;100850.45;108501;1275;21984;-81
2022/11/06 00:45:23;;;;;;;74.20;52.90;;;;;;;4.62;72.90;100856.50;108747;1275;21961;-82
2022/11/06 00:48:17;;;;;;;74.20;53.90;;;;;;;4.62;72.97;100858.08;108766;1276;21954;-81
2022/11/06 00:51:07;;;;;;;72.40;52.70;;;;;;;4.59;72.82;100858.25;108731;1275;23012;-82
2022/11/06 00:53:53;;;;;;;69.20;51.40;;;;;;;4.58;72.88;100858.42;108765;1277;21942;-82
2022/11/06 00:56:35;;;;;;;68.40;52.10;;;;;;;4.56;72.83;100857.76;108429;1279;21939;-83
2022/11/06 00:59:24;;;;;;;66.20;51.50;;;;;;;4.54;72.81;100861.02;108477;1280;24399;-83
2022/11/06 01:02:20;;;;;;;68.10;49.90;;;;;;;4.51;72.84;100864.31;108580;1280;21984;-83
2022/11/06 01:04:56;;;;;;;68.90;52.30;;;;;;;4.50;72.83;100866.06;108488;1280;21977;-84
2022/11/06 01:07:32;;;;;;;71.90;53.30;;;;;;;4.48;72.81;100865.02;108453;1280;22268;-84
2022/11/06 01:10:06;;;;;;;67.80;51.50;;;;;;;4.48;72.84;100863.98;108473;1280;21984;-84
2022/11/06 01:12:47;;;;;;;69.80;53.20;;;;;;;4.47;72.70;100862.10;108447;1280;23067;-84
2022/11/06 01:15:44;;;;;;;77.80;56.90;;;;;;;4.43;72.70;100857.45;108569;1274;21909;-83
2022/11/06 01:18:30;;;;;;;78.70;60.60;;;;;;;4.39;72.69;100853.00;108772;1276;23615;-82
2022/11/06 01:21:29;;;;;;;76.30;59.80;;;;;;;4.37;72.91;100852.33;108696;1277;23686;-83
2022/11/06 01:24:39;;;;;;;;;;;;;;;;;;;;;
2022/11/06 01:32:04;;;;;;;78.10;58.40;;;;;;;4.21;72.93;100859.27;108384;1281;21963;-83
2022/11/06 01:34:55;;;;;;;76.30;57.20;;;;;;;4.18;72.95;100863.77;108238;1284;21981;-83
2022/11/06 01:38:04;;;;;;;74.90;58.40;;;;;;;4.12;72.76;100854.83;108054;1275;23050;-84
2022/11/06 01:41:26;;;;;;;74.50;56.30;;;;;;;4.10;72.91;100862.92;107993;1289;22707;-84
2022/11/06 01:45:15;;;;;;;63.00;50.80;;;;;;;4.08;72.90;100870.34;108090;1286;21960;-84
2022/11/06 01:48:09;;;;;;;69.80;53.10;;;;;;;3.94;72.73;100868.48;107420;1295;23734;-82
2022/11/06 01:50:54;;;;;;;69.90;53.80;;;;;;;3.89;72.91;100864.52;107139;1295;21950;-82
2022/11/06 01:53:48;;;;;;;62.40;51.90;;;;;;;3.92;73.25;100865.90;107223;1295;23626;-82
2022/11/06 01:56:30;;;;;;;75.80;55.70;;;;;;;3.90;73.26;100855.23;106496;1301;21988;-81
2022/11/06 01:59:11;;;;;;;71.80;57.50;;;;;;;3.90;73.12;100857.30;106979;1298;21974;-82
2022/11/06 02:02:03;;;;;;;67.40;53.90;;;;;;;3.90;72.98;100861.42;107280;1298;23081;-83
2022/11/06 02:04:51;;;;;;;;;;;;;;;;;;;;;
2022/11/06 02:07:27;;;;;;;61.60;51.60;;;;;;;3.79;72.79;100863.70;106376;1301;23727;-83
2022/11/06 02:10:13;;;;;;;59.10;48.90;;;;;;;3.75;72.95;100862.14;106821;1289;21956;-82
2022/11/06 02:13:15;;;;;;;;;;;;;;;;;;;;;
2022/11/06 02:16:12;;;;;;;61.40;50.50;;;;;;;3.66;73.05;100863.54;106870;1300;23676;-82
2022/11/06 02:19:15;;;;;;;57.40;48.30;;;;;;;3.66;73.22;100865.25;106935;1298;22010;-82
2022/11/06 02:22:50;;;;;;;60.50;47.50;;;;;;;3.62;73.19;100859.76;107277;1298;21960;-83
2022/11/06 02:26:00;;;;;;;57.60;47.40;;;;;;;3.50;72.93;100859.08;107741;1294;21981;-84
2022/11/06 02:29:07;;;;;;;62.20;46.20;;;;;;;3.32;72.77;100855.46;107414;1295;21966;-82
2022/11/06 02:31:40;;;;;;;60.60;47.10;;;;;;;3.12;72.56;100858.04;106931;1298;21989;-82
2022/11/06 02:34:29;;;;;;;70.40;49.90;;;;;;;3.01;72.74;100860.09;107263;1291;22003;-83
2022/11/06 02:37:22;;;;;;;80.00;49.20;;;;;;;2.90;72.82;100862.48;107609;1292;21969;-84
2022/11/06 02:40:33;;;;;;;;;;;;;;;;;;;;;
2022/11/06 02:43:42;;;;;;;82.80;50.00;;;;;;;2.63;73.38;100869.47;108159;1286;21933;-82
2022/11/06 02:46:38;;;;;;;73.40;50.20;;;;;;;2.60;73.65;100872.54;108006;1286;21939;-82
2022/11/06 02:49:40;;;;;;;62.90;51.30;;;;;;;2.54;73.81;100875.10;108090;1286;23743;-83
2022/11/06 02:53:05;;;;;;;74.20;51.50;;;;;;;2.54;74.32;100874.42;107823;1291;21946;-82
2022/11/06 02:56:10;;;;;;;82.40;51.80;;;;;;;2.62;74.32;100880.96;105694;1312;544619;-82
2022/11/06 02:58:57;;;;;;;68.70;51.60;;;;;;;2.57;74.31;100888.16;107994;1287;23821;-82
2022/11/06 03:01:57;;;;;;;77.10;49.10;;;;;;;2.55;74.33;100885.92;108476;1281;21986;-82
2022/11/06 03:06:05;;;;;;;85.70;51.00;;;;;;;2.49;74.56;100885.91;108567;1283;21972;-83
2022/11/06 03:12:51;;;;;;;89.90;49.60;;;;;;;2.43;75.10;100885.19;108185;1292;21947;-83
2022/11/06 03:16:04;;;;;;;;;;;;;;;;;;;;;
2022/11/06 03:19:41;;;;;;;77.10;47.40;;;;;;;2.39;75.48;100875.73;107875;1287;22655;-82
2022/11/06 03:22:31;;;;;;;73.80;45.30;;;;;;;2.41;75.77;100878.14;107440;1283;23054;-83
2022/11/06 03:25:42;;;;;;;60.70;40.90;;;;;;;2.43;75.86;100877.98;107500;1294;22287;-83
2022/11/06 03:28:35;;;;;;;62.90;42.90;;;;;;;2.45;75.94;100883.31;107324;1294;21926;-83
2022/11/06 03:31:28;;;;;;;;;;;;;;;;;;;;;
2022/11/06 03:34:20;;;;;;;63.70;41.40;;;;;;;2.47;76.10;100883.32;106790;1300;23693;-82
2022/11/06 03:38:12;;;;;;;63.80;41.40;;;;;;;2.50;76.45;100888.50;106953;1295;21961;-80
2022/11/06 03:41:13;;;;;;;57.50;38.20;;;;;;;2.55;76.63;100889.02;107163;1294;21954;-82
2022/11/06 03:44:27;;;;;;;54.90;34.10;;;;;;;2.57;76.59;100889.02;107863;1285;23129;-80
2022/11/06 03:48:10;;;;;;;41.70;32.40;;;;;;;2.56;76.57;100889.20;108233;1277;21932;-80
2022/11/06 03:50:57;;;;;;;40.50;30.10;;;;;;;2.54;76.45;100892.12;107657;1289;21943;-79
2022/11/06 03:54:19;;;;;;;45.00;30.40;;;;;;;2.54;76.65;100893.14;108279;1283;21944;-80
2022/11/06 03:57:39;;;;;;;38.50;30.60;;;;;;;2.57;76.69;100888.67;108475;1283;21929;-81
2022/11/06 04:00:55;;;;;;;;;;;;;;;;;;;;;
2022/11/06 04:04:15;;;;;;;47.70;32.60;;;;;;;2.65;76.84;100881.67;107406;1295;23027;-82
2022/11/06 04:07:19;;;;;;;47.50;31.30;;;;;;;2.64;76.75;100882.02;107608;1292;23627;-83
2022/11/06 04:16:50;;;;;;;52.20;26.30;;;;;;;2.73;77.04;100877.58;107565;1292;21972;-82
2022/11/06 04:19:46;;;;;;;38.30;24.50;;;;;;;2.73;77.00;100871.55;107774;1288;23100;-84
2022/11/06 04:23:02;;;;;;;46.90;26.60;;;;;;;2.73;76.98;100873.11;108085;1282;21964;-83
2022/11/06 04:29:55;;;;;;;;;;;;;;;;;;;;;
2022/11/06 04:33:34;;;;;;;68.80;35.40;;;;;;;2.68;77.06;100878.58;108177;1286;22409;-81
2022/11/06 04:37:18;;;;;;;77.60;36.60;;;;;;;2.71;77.15;100876.88;108344;1285;21940;-82
2022/11/06 04:40:44;;;;;;;77.20;38.60;;;;;;;2.73;77.19;100876.02;108180;1283;22294;-82
2022/11/06 04:43:42;;;;;;;64.60;41.20;;;;;;;2.75;77.19;100873.96;108023;1289;23091;-81
2022/11/06 04:46:32;;;;;;;70.30;45.60;;;;;;;2.80;77.33;100871.91;108173;1286;23989;-81
2022/11/06 04:49:09;;;;;;;79.70;48.80;;;;;;;2.84;77.25;100871.06;108451;1281;22083;-82
2022/11/06 04:51:46;;;;;;;68.00;40.90;;;;;;;2.87;77.13;100873.47;108437;1281;21955;-82
2022/11/06 04:54:21;;;;;;;79.30;45.20;;;;;;;2.90;77.29;100874.68;108260;1283;21946;-82
2022/11/06 04:57:01;;;;;;;77.30;42.00;;;;;;;2.94;77.27;100869.20;108209;1280;21984;-82
2022/11/06 04:59:36;;;;;;;71.70;40.70;;;;;;;3.03;77.47;100874.71;108407;1275;21978;-83
2022/11/06 05:02:14;;;;;;;67.60;41.90;;;;;;;3.10;77.46;100875.92;107986;1286;22490;-82
2022/11/06 05:04:54;;;;;;;56.80;35.70;;;;;;;3.17;77.40;100881.27;107937;1287;22027;-82
2022/11/06 05:07:27;;;;;;;53.00;35.50;;;;;;;3.22;77.43;100885.73;108252;1286;21963;-83
2022/11/06 05:10:23;;;;;;;58.70;36.40;;;;;;;3.30;77.57;100885.58;108068;1289;22018;-82
2022/11/06 05:12:54;;;;;;;51.80;35.10;;;;;;;3.38;77.63;100884.72;107821;1287;22964;-84
2022/11/06 05:15:24;;;;;;;48.60;31.60;;;;;;;3.47;77.61;100882.31;108016;1286;21949;-83
2022/11/06 05:18:01;;;;;;;48.90;31.20;;;;;;;3.55;77.53;100875.25;108200;1286;23685;-82
2022/11/06 05:20:39;;;;;;;53.40;33.30;;;;;;;3.60;77.47;100873.36;108473;1277;22294;-82
2022/11/06 05:23:14;;;;;;;52.10;28.60;;;;;;;3.64;77.43;100875.77;108680;1277;21961;-83
2022/11/06 05:26:08;;;;;;;44.50;28.00;;;;;;;3.65;77.35;100875.41;108795;1278;21938;-82
2022/11/06 05:28:48;;;;;;;41.90;27.20;;;;;;;3.59;76.98;100874.73;108404;1281;23067;-82
2022/11/06 05:31:21;;;;;;;41.30;25.80;;;;;;;3.50;76.81;100878.86;108411;1282;21996;-82
2022/11/06 05:33:53;;;;;;;52.10;30.10;;;;;;;3.41;76.75;100877.67;108653;1280;21954;-82
2022/11/06 05:36:27;;;;;;;40.60;26.80;;;;;;;3.39;76.89;100881.44;108588;1281;23145;-82
2022/11/06 05:38:58;;;;;;;31.60;21.70;;;;;;;3.39;76.98;100884.89;108598;1280;21942;-82
2022/11/06 05:41:39;;;;;;;34.40;23.60;;;;;;;3.37;76.98;100889.18;108570;1277;21945;-82
2022/11/06 05:44:13;;;;;;;33.80;23.20;;;;;;;3.38;76.97;100896.42;108354;1279;21940;-83
2022/11/06 05:46:56;;;;;;;31.40;23.60;;;;;;;3.37;77.06;100896.25;108654;1277;21934;-82
2022/11/06 05:49:33;;;;;;;31.50;23.10;;;;;;;3.37;77.22;100893.66;108622;1278;23070;-80
2022/11/06 05:52:11;;;;;;;33.30;25.50;;;;;;;3.40;77.36;100895.89;108757;1278;22021;-80
2022/11/06 05:54:52;;;;;;;;;;;;;;;;;;;;;
2022/11/06 05:57:25;;;;;;;;;;;;;;;3.44;77.12;100888.84;108649;1280;23062;-82
2022/11/06 06:00:12;;;;;;;24.20;16.60;;;;;;;3.35;77.33;100892.12;108714;1278;23796;-80
2022/11/06 06:02:56;;;;;;;25.80;17.90;;;;;;;3.36;77.42;100891.94;108506;1279;21926;-82
2022/11/06 06:05:35;;;;;;;26.00;18.30;;;;;;;3.36;77.22;100888.67;108722;1281;22011;-82
2022/11/06 06:08:12;;;;;;;16.70;11.30;;;;;;;3.37;77.36;100891.09;108517;1277;23805;-82
2022/11/06 06:10:49;;;;;;;24.20;12.90;;;;;;;3.35;76.97;100893.66;108551;1274;21930;-80
2022/11/06 06:13:19;;;;;;;20.90;13.10;;;;;;;3.37;77.19;100894.70;108349;1283;23089;-80
2022/11/06 06:16:00;;;;;;;23.50;12.40;;;;;;;3.41;77.32;100898.98;108457;1284;21929;-82
2022/11/06 06:18:32;;;;;;;20.70;12.60;;;;;;;3.45;77.30;100902.62;108006;1289;23116;-82
2022/11/06 06:21:17;;;;;;;26.00;13.50;;;;;;;3.48;77.30;100902.95;107954;1289;21958;-81
2022/11/06 06:23:51;;;;;;;28.40;15.00;;;;;;;3.52;77.33;100905.20;107965;1289;21956;-82
2022/11/06 06:26:25;;;;;;;32.20;15.90;;;;;;;3.54;77.17;100906.40;107939;1289;21938;-82
2022/11/06 06:29:02;;;;;;;37.40;23.20;;;;;;;3.51;77.08;100910.88;107842;1287;22026;-81
2022/11/06 06:31:44;;;;;;;28.90;17.60;;;;;;;3.53;77.26;100915.52;108433;1280;21943;-82
2022/11/06 06:34:42;;;;;;;;;;;;;;;;;;;;;
2022/11/06 06:37:58;;;;;;;40.50;26.00;;;;;;;3.63;77.64;100916.55;108950;1276;23069;-81
2022/11/06 06:40:39;;;;;;;49.20;31.40;;;;;;;3.68;77.71;100923.09;109000;1277;21956;-83
2022/11/06 06:43:42;;;;;;;34.20;20.70;;;;;;;3.75;77.78;100928.95;108926;1277;23045;-81
2022/11/06 06:46:33;;;;;;;31.30;22.10;;;;;;;3.83;77.86;100927.05;108941;1276;23067;-81
2022/11/06 06:49:25;;;;;;;21.70;18.60;;;;;;;3.91;77.74;100926.69;108651;1281;21953;-82
2022/11/06 06:52:41;;;;;;;25.50;16.70;;;;;;;3.93;77.53;100925.66;108513;1281;21926;-81
2022/11/06 06:55:51;;;;;;;;;;;;;;;;;;;;;
2022/11/06 06:59:23;;;;;;;17.30;13.00;;;;;;;3.95;77.64;100926.52;108553;1280;22391;-82
2022/11/06 07:02:38;;;;;;;20.70;9.90;;;;;;;3.96;77.44;100923.41;108548;1282;22013;-83
2022/11/06 07:05:26;;;;;;;18.50;12.70;;;;;;;3.90;77.32;100923.06;108407;1282;23550;-82
2022/11/06 07:08:30;;;;;;;21.00;14.40;;;;;;;3.89;77.39;100922.20;108864;1275;21924;-81
2022/11/06 07:11:21;;;;;;;;;;;;;;;;;;;;;
2022/11/06 07:14:40;;;;;;;23.70;14.90;;;;;;;3.88;77.51;100919.98;108060;1287;23012;-83
2022/11/06 07:17:41;;;;;;;43.00;17.30;;;;;;;3.89;77.49;100919.45;107931;1288;21990;-81
2022/11/06 07:20:29;;;;;;;33.90;18.00;;;;;;;3.91;77.78;100918.59;107700;1287;22634;-82
2022/11/06 07:23:13;;;;;;;48.30;20.80;;;;;;;3.96;77.77;100915.84;107419;1295;22972;-78
2022/11/06 07:25:59;;;;;;;53.80;23.30;;;;;;;4.01;77.80;100917.02;107406;1297;22024;-80
2022/11/06 07:28:52;;;;;;;54.30;27.90;;;;;;;3.99;77.78;100911.00;107507;1291;21924;-80
2022/11/06 07:31:43;;;;;;;59.20;30.80;;;;;;;4.01;77.73;100910.48;107824;1290;23106;-80
2022/11/06 07:34:49;;;;;;;59.70;35.80;;;;;;;3.99;77.87;100911.35;107432;1291;22326;-81
2022/11/06 07:37:49;;;;;;;78.60;40.20;;;;;;;4.06;78.01;100912.19;107489;1294;21956;-81
2022/11/06 07:40:39;;;;;;;94.10;46.00;;;;;;;4.04;77.72;100906.68;107241;1296;21977;-80
2022/11/06 07:44:08;;;;;;;;;;;;;;;;;;;;;
2022/11/06 07:47:11;;;;;;;83.70;41.80;;;;;;;3.87;77.75;100914.81;107838;1288;21950;-81
2022/11/06 07:50:11;;;;;;;58.60;38.20;;;;;;;3.92;78.19;100912.23;107419;1292;22013;-80
2022/11/06 07:53:08;;;;;;;63.40;39.50;;;;;;;4.00;78.25;100911.52;107535;1289;21947;-80
2022/11/06 07:56:02;;;;;;;68.20;31.10;;;;;;;4.08;78.49;100915.64;107877;1289;22179;-81
2022/11/06 07:59:01;;;;;;;60.00;31.70;;;;;;;4.17;78.45;100919.08;108077;1283;23099;-80
2022/11/06 08:01:53;;;;;;;;;;;;;;;;;;;;;
2022/11/06 08:05:18;;;;;;;45.60;33.40;;;;;;;4.29;78.39;100926.61;108206;1283;22001;-80
2022/11/06 08:08:02;;;;;;;51.40;35.50;;;;;;;4.40;78.59;100933.13;108237;1283;21955;-81
2022/11/06 08:10:53;;;;;;;49.30;34.30;;;;;;;4.48;78.32;100935.00;108475;1275;22066;-81
2022/11/06 08:13:32;;;;;;;48.80;27.90;;;;;;;4.55;78.39;100935.14;108439;1282;21914;-80
2022/11/06 08:16:16;;;;;;;46.60;28.00;;;;;;;4.57;78.02;100933.93;108392;1284;21948;-80
2022/11/06 08:18:55;;;;;;;46.60;28.60;;;;;;;4.57;77.94;100934.63;108132;1280;23613;-81
2022/11/06 08:21:41;;;;;;;46.90;29.20;;;;;;;4.62;77.94;100934.26;108536;1280;21938;-81
2022/11/06 08:24:14;;;;;;;42.90;26.50;;;;;;;4.66;77.99;100931.31;108462;1282;21939;-81
2022/11/06 08:26:54;;;;;;;60.80;29.50;;;;;;;4.73;77.98;100926.11;108496;1282;22038;-82
2022/11/06 08:29:35;;;;;;;41.80;30.90;;;;;;;4.80;78.09;100925.23;108579;1280;21993;-81
2022/11/06 08:32:15;;;;;;;56.50;34.00;;;;;;;4.90;78.24;100926.54;108821;1274;21928;-80
2022/11/06 08:34:48;;;;;;;55.50;36.00;;;;;;;5.01;78.25;100930.80;108862;1274;22707;-80
2022/11/06 08:37:41;;;;;;;51.20;32.50;;;;;;;5.11;78.25;100933.84;108747;1275;21994;-81
2022/11/06 08:40:35;;;;;;;39.70;30.00;;;;;;;5.19;78.05;100933.98;108836;1274;21930;-81
2022/11/06 08:43:25;;;;;;;46.40;32.40;;;;;;;5.28;78.09;100933.40;108797;1276;23416;-80
2022/11/06 08:46:05;;;;;;;49.10;35.10;;;;;;;5.36;78.10;100928.34;108398;1279;24197;-81
2022/11/06 08:48:46;;;;;;;49.30;35.90;;;;;;;5.45;78.11;100926.19;108634;1280;23741;-82
2022/11/06 08:51:22;;;;;;;44.00;27.70;;;;;;;5.53;77.95;100928.90;108446;1282;23741;-81
2022/11/06 08:53:58;;;;;;;38.30;29.20;;;;;;;5.57;77.68;100928.69;108255;1285;21957;-81
2022/11/06 08:56:33;;;;;;;38.80;34.00;;;;;;;5.61;77.56;100928.30;108156;1288;21961;-81
2022/11/06 08:59:07;;;;;;;41.80;37.40;;;;;;;5.64;77.49;100929.33;108243;1285;21930;-80
2022/11/06 09:01:49;;;;;;;34.30;30.50;;;;;;;5.63;77.44;100930.71;108304;1285;21940;-81
2022/11/06 09:04:25;;;;;;;41.80;33.80;;;;;;;5.68;77.54;100932.05;108519;1273;21960;-80
2022/11/06 09:07:34;;;;;;;41.90;33.70;;;;;;;5.82;77.99;100933.48;108582;1280;23711;-80
2022/11/06 09:10:28;;;;;;;33.10;27.30;;;;;;;6.01;78.10;100938.35;108635;1279;21959;-81
2022/11/06 09:13:05;;;;;;;40.30;25.60;;;;;;;6.10;77.66;100937.93;108409;1282;21947;-81
2022/11/06 09:15:52;;;;;;;35.80;29.50;;;;;;;6.11;77.29;100934.13;108497;1282;22191;-81
2022/11/06 09:18:24;;;;;;;36.10;29.70;;;;;;;6.14;77.31;100932.70;108464;1280;22314;-82
2022/11/06 09:21:02;;;;;;;36.80;28.50;;;;;;;6.24;77.52;100930.70;108332;1285;21949;-82
2022/11/06 09:23:43;;;;;;;36.90;30.20;;;;;;;6.39;77.69;100931.91;108471;1279;24356;-82
2022/11/06 09:26:24;;;;;;;39.70;33.30;;;;;;;6.51;77.59;100928.49;108461;1283;21976;-81
2022/11/06 09:29:23;;;;;;;42.30;32.70;;;;;;;6.57;77.28;100927.04;108617;1279;21941;-84
2022/11/06 09:32:22;;;;;;;47.60;36.60;;;;;;;6.73;77.52;100928.06;109105;1273;21947;-84
2022/11/06 09:35:29;;;;;;;42.70;32.00;;;;;;;6.82;77.05;100925.00;109076;1273;23569;-84
2022/11/06 09:38:18;;;;;;;41.00;31.50;;;;;;;6.90;77.09;100924.90;109153;1275;22001;-83
2022/11/06 09:41:50;;;;;;;33.80;26.30;;;;;;;7.01;77.04;100927.00;109071;1273;23048;-82
2022/11/06 09:44:57;;;;;;;31.60;25.30;;;;;;;7.04;76.80;100922.27;109147;1272;22259;-79
2022/11/06 09:47:46;;;;;;;28.00;22.70;;;;;;;7.07;76.43;100922.92;109236;1272;21960;-81
2022/11/06 09:50:57;;;;;;;30.00;24.90;;;;;;;7.00;76.06;100927.35;109038;1272;22706;-81
2022/11/06 09:53:51;;;;;;;33.80;30.20;;;;;;;6.98;76.32;100928.77;109072;1271;21926;-81
2022/11/06 09:56:36;;;;;;;36.70;32.60;;;;;;;7.02;76.46;100930.11;109193;1269;21924;-82
2022/11/06 09:59:17;;;;;;;39.80;35.70;;;;;;;7.11;76.32;100931.00;109109;1274;21925;-84
2022/11/06 10:02:30;;;;;;;41.60;37.10;;;;;;;7.24;76.82;100931.35;109123;1272;21939;-83
2022/11/06 10:05:10;;;;;;;48.20;40.10;;;;;;;7.38;76.93;100932.16;108868;1277;21968;-83
2022/11/06 10:08:04;;;;;;;40.90;36.50;;;;;;;7.59;77.15;100931.31;108913;1270;23586;-84
2022/11/06 10:11:14;;;;;;;40.30;33.10;;;;;;;7.69;76.47;100931.52;108681;1282;21949;-84
2022/11/06 10:14:29;;;;;;;35.90;31.20;;;;;;;7.76;76.44;100933.27;108809;1282;21953;-83
2022/11/06 10:17:30;;;;;;;32.10;26.90;;;;;;;7.91;76.26;100927.83;108797;1278;21956;-84
2022/11/06 10:20:46;;;;;;;;;;;;;;;;;;;;;
2022/11/06 10:23:37;;;;;;;28.00;25.10;;;;;;;7.94;75.70;100925.52;108890;1277;21964;-81
2022/11/06 10:26:40;;;;;;;33.60;26.10;;;;;;;8.02;75.57;100928.48;109088;1277;21937;-83
2022/11/06 10:29:56;;;;;;;30.00;25.60;;;;;;;7.97;74.96;100926.85;108903;1272;21959;-81
2022/11/06 10:32:59;;;;;;;49.90;41.60;;;;;;;7.93;75.08;100922.24;108956;1276;22415;-81
2022/11/06 10:35:53;;;;;;;38.70;30.80;;;;;;;7.92;74.84;100919.48;109119;1277;22811;-82
2022/11/06 10:39:12;;;;;;;47.10;38.60;;;;;;;7.91;75.01;100916.23;109029;1273;24333;-82
2022/11/06 10:42:07;;;;;;;;;;;;;;;;;;;;;
2022/11/06 10:44:53;;;;;;;;;;;;;;;7.95;75.20;100913.21;108084;1282;21939;-81
2022/11/06 10:48:17;;;;;;;52.00;46.50;;;;;;;7.98;75.76;100910.55;108114;1283;23005;-81
2022/11/06 10:51:24;;;;;;;62.00;56.00;;;;;;;8.09;75.54;100904.28;108038;1283;22429;-81
2022/11/06 10:55:23;;;;;;;41.70;37.20;;;;;;;8.10;75.31;100895.95;108287;1283;21976;-82
2022/11/06 10:58:20;;;;;;;34.70;31.10;;;;;;;8.16;75.26;100889.76;107829;1289;21952;-82
2022/11/06 11:01:17;;;;;;;34.80;31.00;;;;;;;8.15;75.14;100886.66;108223;1283;21953;-82
2022/11/06 11:04:14;;;;;;;35.40;31.80;;;;;;;8.20;75.26;100886.04;108222;1283;21949;-82
2022/11/06 11:06:49;;;;;;;36.20;31.70;;;;;;;8.32;75.52;100881.48;108452;1277;22377;-81
2022/11/06 11:09:34;;;;;;;36.60;32.60;;;;;;;8.40;75.23;100876.98;108511;1277;23699;-81
2022/11/06 11:12:39;;;;;;;51.70;42.60;;;;;;;8.40;74.91;100875.60;108594;1277;22001;-81
2022/11/06 11:15:24;;;;;;;37.80;31.70;;;;;;;8.40;74.96;100865.71;108556;1277;22000;-82
2022/11/06 11:18:21;;;;;;;35.70;31.50;;;;;;;8.45;74.97;100858.86;108590;1277;23672;-81
2022/11/06 11:21:05;;;;;;;35.50;30.00;;;;;;;8.53;75.15;100854.54;108679;1276;23587;-81
2022/11/06 11:24:06;;;;;;;31.90;26.40;;;;;;;8.61;75.15;100846.22;108305;1283;22127;-81
2022/11/06 11:26:53;;;;;;;31.80;27.90;;;;;;;8.65;74.89;100840.07;108026;1289;23068;-81
2022/11/06 11:29:53;;;;;;;29.70;26.50;;;;;;;8.65;74.58;100835.55;107932;1284;23266;-81
2022/11/06 11:32:44;;;;;;;23.20;20.60;;;;;;;8.56;74.36;100831.74;107480;1292;21968;-80
2022/11/06 11:35:40;;;;;;;27.50;24.40;;;;;;;8.49;74.19;100832.60;106899;1298;23614;-81
2022/11/06 11:38:21;;;;;;;25.40;21.20;;;;;;;8.48;74.68;100826.89;106827;1298;24460;-81
2022/11/06 11:41:24;;;;;;;35.90;25.50;;;;;;;8.53;74.91;100820.20;106762;1298;22024;-82
2022/11/06 11:44:33;;;;;;;29.70;25.80;;;;;;;8.59;74.96;100817.11;107101;1295;21973;-81
2022/11/06 11:47:44;;;;;;;;;;;;;;;;;;;;;
2022/11/06 11:51:01;;;;;;;;;;;;;;;;;;;;;
2022/11/06 11:53:40;;;;;;;26.10;19.70;;;;;;;8.75;74.84;100807.55;108543;1273;21929;-81
2022/11/06 11:56:35;;;;;;;22.60;19.20;;;;;;;8.79;74.91;100798.27;108784;1272;23196;-80
2022/11/06 11:59:43;;;;;;;29.40;24.10;;;;;;;8.86;75.09;100792.73;108892;1274;22026;-81
2022/11/06 12:02:43;;;;;;;33.10;25.60;;;;;;;8.95;75.19;100788.17;108874;1274;23575;-82
2022/11/06 12:05:37;;;;;;;46.90;38.00;;;;;;;9.08;75.34;100784.57;108750;1274;21951;-82
2022/11/06 12:08:21;;;;;;;24.00;18.20;;;;;;;9.17;74.96;100778.79;108816;1274;22192;-81
2022/11/06 12:11:05;;;;;;;26.20;19.70;;;;;;;9.23;74.80;100771.67;108449;1279;21939;-81
2022/11/06 12:13:44;;;;;;;21.80;17.20;;;;;;;9.31;74.72;100769.92;108320;1277;21939;-81
2022/11/06 12:16:27;;;;;;;24.20;16.80;;;;;;;9.37;74.59;100767.17;107965;1283;21974;-82
2022/11/06 12:19:16;;;;;;;22.60;15.90;;;;;;;9.42;74.43;100765.63;107963;1285;21988;-82
2022/11/06 12:22:26;;;;;;;17.50;14.90;;;;;;;9.43;73.97;100759.70;108052;1285;21949;-82
2022/11/06 12:25:37;;;;;;;22.40;15.70;;;;;;;9.41;73.93;100755.77;107997;1285;21956;-80
2022/11/06 12:28:21;;;;;;;;;;;;;;;9.49;73.99;100752.41;108171;1279;22448;-82
2022/11/06 12:31:29;;;;;;;24.50;16.80;;;;;;;9.46;73.87;100753.38;108460;1278;21998;-81
2022/11/06 12:34:25;;;;;;;24.10;16.40;;;;;;;9.47;73.70;100748.67;108389;1276;21966;-82
2022/11/06 12:37:20;;;;;;;23.40;15.20;;;;;;;9.47;73.33;100746.73;108400;1278;22302;-83
2022/11/06 12:40:15;;;;;;;21.00;16.10;;;;;;;9.47;73.29;100742.57;108481;1279;22293;-82
2022/11/06 12:43:41;;;;;;;20.30;15.40;;;;;;;9.52;73.29;100740.17;108793;1274;21937;-81
2022/11/06 12:46:57;;;;;;;21.70;18.40;;;;;;;9.56;73.23;100735.89;108886;1271;21936;-82
2022/11/06 12:50:21;;;;;;;20.30;16.00;;;;;;;9.65;73.37;100734.44;108960;1274;21922;-83
2022/11/06 12:53:40;;;;;;;17.20;14.30;;;;;;;9.68;72.85;100730.70;108724;1273;21937;-82
2022/11/06 12:56:36;;;;;;;22.30;14.70;;;;;;;9.65;72.61;100725.39;108669;1277;23796;-82
2022/11/06 12:59:54;;;;;;;21.20;16.20;;;;;;;9.64;72.49;100720.75;108596;1277;23618;-82
2022/11/06 13:02:55;;;;;;;23.50;16.60;;;;;;;9.59;72.42;100722.27;108711;1277;23604;-86
2022/11/06 13:05:59;;;;;;;19.40;14.00;;;;;;;9.56;72.46;100727.89;109234;1275;21940;-82
2022/11/06 13:08:32;;;;;;;21.80;15.70;;;;;;;9.57;72.56;100722.84;108694;1283;22013;-83
2022/11/06 13:11:57;;;;;;;21.10;16.10;;;;;;;9.60;72.13;100725.70;108467;1282;23629;-82
2022/11/06 13:15:18;;;;;;;33.90;29.20;;;;;;;9.54;72.12;100724.30;108190;1278;24339;-82
2022/11/06 13:18:27;;;;;;;34.80;30.50;;;;;;;9.50;72.29;100719.39;108145;1285;23684;-81
2022/11/06 13:21:30;;;;;;;;;;;;;;;;;;;;;
2022/11/06 13:24:32;;;;;;;25.50;21.20;;;;;;;9.57;72.25;100711.90;107867;1291;23656;-82
2022/11/06 13:27:39;;;;;;;31.30;25.50;;;;;;;9.58;72.07;100710.29;107302;1293;24949;-82
2022/11/06 13:30:19;;;;;;;34.90;25.70;;;;;;;9.59;72.03;100710.61;107610;1293;23786;-81
2022/11/06 13:33:15;;;;;;;34.60;27.10;;;;;;;9.57;71.73;100708.06;106990;1296;21976;-81
2022/11/06 13:36:08;;;;;;;30.90;23.30;;;;;;;9.61;71.67;100709.01;106414;1305;21985;-80
2022/11/06 13:38:55;;;;;;;26.70;21.50;;;;;;;9.62;71.50;100707.95;106052;1311;23736;-81
2022/11/06 13:41:34;;;;;;;32.80;23.80;;;;;;;9.61;71.53;100703.10;106012;1305;21997;-80
2022/11/06 13:44:33;;;;;;;61.80;43.70;;;;;;;9.64;71.41;100703.02;106508;1304;22435;-81
2022/11/06 13:47:16;;;;;;;33.30;23.00;;;;;;;9.67;71.19;100705.89;107040;1299;23078;-82
2022/11/06 13:49:59;;;;;;;29.30;21.40;;;;;;;9.64;70.90;100706.65;106932;1300;22079;-81
2022/11/06 13:53:15;;;;;;;22.40;19.10;;;;;;;9.60;70.89;100708.86;108379;1280;21955;-81
2022/11/06 13:56:30;;;;;;;31.90;20.10;;;;;;;9.53;70.89;100710.61;108838;1265;21945;-81
2022/11/06 13:59:39;;;;;;;34.30;24.50;;;;;;;9.46;70.82;100709.94;108865;1278;21956;-81
2022/11/06 14:02:42;;;;;;;29.60;21.30;;;;;;;9.40;70.57;100709.59;108917;1277;22288;-81
2022/11/06 14:05:43;;;;;;;28.60;22.90;;;;;;;9.30;70.52;100706.73;109257;1266;22746;-81
2022/11/06 14:08:37;;;;;;;35.10;28.80;;;;;;;9.26;70.73;100708.06;109283;1274;22632;-83